EDW25A LSZH-BKPR
Flight info
| Callsign | EDW25A |
|---|---|
| Flight time | 1h 38m |
| Altitude | 39000 |
| Route | DEGES Z2 XEBIX L607 ELMEM N606 GIRIS DCT PEVAL DCT OKLAX DCT RINAV DCT ARBER ARBER1A |
| Aircraft | A343/H-SDE2E3FGHIJ4J5M1P2RWXYZ/LB1D1 |
Departure
| Time | 2026-05-07 17:33 |
|---|---|
| Airport | Zürich Airport (LSZH) |
Arrival
| Time | 2026-05-07 19:11 |
|---|---|
| Airport | Priština Adem Jashari International Airport (BKPR) |
| Time | Latitude | Longitude | Altitude | Speed | Heading |
|---|---|---|---|---|---|
| 2026-05-07 17:10 | 47.45169 | 8.55898 | 1411 ft | 0 kts | 186° |
| 2026-05-07 17:21 | 47.45170 | 8.55899 | 1411 ft | 2 kts | 186° |
| 2026-05-07 17:21 | 47.45196 | 8.55898 | 1414 ft | 4 kts | 166° |
| 2026-05-07 17:21 | 47.45221 | 8.55887 | 1413 ft | 4 kts | 175° |
| 2026-05-07 17:22 | 47.45241 | 8.55895 | 1414 ft | 4 kts | 224° |
| 2026-05-07 17:22 | 47.45251 | 8.55926 | 1419 ft | 4 kts | 274° |
| 2026-05-07 17:22 | 47.45248 | 8.55963 | 1418 ft | 2 kts | 276° |
| 2026-05-07 17:22 | 47.45248 | 8.55966 | 1417 ft | 0 kts | 276° |
| 2026-05-07 17:25 | 47.45248 | 8.55964 | 1411 ft | 0 kts | 276° |
| 2026-05-07 17:26 | 47.45251 | 8.55924 | 1411 ft | 10 kts | 276° |
| 2026-05-07 17:26 | 47.45260 | 8.55780 | 1415 ft | 17 kts | 275° |
| 2026-05-07 17:26 | 47.45278 | 8.55601 | 1414 ft | 17 kts | 296° |
| 2026-05-07 17:26 | 47.45376 | 8.55508 | 1414 ft | 17 kts | 335° |
| 2026-05-07 17:27 | 47.45491 | 8.55427 | 1416 ft | 20 kts | 334° |
| 2026-05-07 17:27 | 47.45621 | 8.55344 | 1409 ft | 21 kts | 351° |
| 2026-05-07 17:27 | 47.45658 | 8.55357 | 1410 ft | 0 kts | 33° |
| 2026-05-07 17:27 | 47.45662 | 8.55377 | 1414 ft | 5 kts | 71° |
| 2026-05-07 17:28 | 47.45666 | 8.55466 | 1410 ft | 12 kts | 92° |
| 2026-05-07 17:28 | 47.45655 | 8.55651 | 1409 ft | 24 kts | 95° |
| 2026-05-07 17:28 | 47.45639 | 8.55894 | 1415 ft | 23 kts | 96° |
| 2026-05-07 17:28 | 47.45621 | 8.56124 | 1417 ft | 22 kts | 96° |
| 2026-05-07 17:29 | 47.45605 | 8.56346 | 1423 ft | 21 kts | 96° |
| 2026-05-07 17:29 | 47.45589 | 8.56561 | 1425 ft | 20 kts | 96° |
| 2026-05-07 17:29 | 47.45575 | 8.56760 | 1428 ft | 19 kts | 95° |
| 2026-05-07 17:29 | 47.45564 | 8.56919 | 1424 ft | 5 kts | 96° |
| 2026-05-07 17:30 | 47.45569 | 8.56968 | 1425 ft | 4 kts | 67° |
| 2026-05-07 17:30 | 47.45571 | 8.56972 | 1425 ft | 0 kts | 63° |
| 2026-05-07 17:30 | 47.45572 | 8.56974 | 1425 ft | 2 kts | 63° |
| 2026-05-07 17:31 | 47.45598 | 8.57000 | 1429 ft | 7 kts | 21° |
| 2026-05-07 17:31 | 47.45660 | 8.56970 | 1428 ft | 12 kts | 310° |
| 2026-05-07 17:31 | 47.45669 | 8.56913 | 1427 ft | 0 kts | 277° |
| 2026-05-07 17:32 | 47.45671 | 8.56878 | 1427 ft | 16 kts | 276° |
| 2026-05-07 17:32 | 47.45705 | 8.56388 | 1425 ft | 78 kts | 276° |
| 2026-05-07 17:32 | 47.45752 | 8.55737 | 1412 ft | 114 kts | 276° |
| 2026-05-07 17:33 | 47.45898 | 8.53813 | 1613 ft | 153 kts | 277° |
| 2026-05-07 17:33 | 47.45966 | 8.52237 | 2182 ft | 156 kts | 274° |
| 2026-05-07 17:33 | 47.46027 | 8.50606 | 2782 ft | 165 kts | 275° |
| 2026-05-07 17:33 | 47.46016 | 8.48751 | 3051 ft | 200 kts | 261° |
| 2026-05-07 17:34 | 47.45317 | 8.46833 | 3557 ft | 224 kts | 230° |
| 2026-05-07 17:34 | 47.44300 | 8.45065 | 4484 ft | 227 kts | 234° |
| 2026-05-07 17:34 | 47.43606 | 8.42982 | 5442 ft | 227 kts | 252° |
| 2026-05-07 17:34 | 47.43156 | 8.40747 | 6442 ft | 228 kts | 254° |
| 2026-05-07 17:35 | 47.42667 | 8.38509 | 7337 ft | 230 kts | 245° |
| 2026-05-07 17:35 | 47.42088 | 8.37202 | 7948 ft | 231 kts | 227° |
| 2026-05-07 17:35 | 47.40935 | 8.36032 | 8773 ft | 233 kts | 202° |
| 2026-05-07 17:36 | 47.39324 | 8.35777 | 9681 ft | 240 kts | 173° |
| 2026-05-07 17:36 | 47.37790 | 8.36807 | 10478 ft | 251 kts | 142° |
| 2026-05-07 17:36 | 47.36810 | 8.38965 | 11210 ft | 262 kts | 108° |
| 2026-05-07 17:36 | 47.36783 | 8.41665 | 11959 ft | 270 kts | 73° |
| 2026-05-07 17:37 | 47.37787 | 8.43984 | 12719 ft | 273 kts | 38° |
| 2026-05-07 17:37 | 47.39470 | 8.45198 | 13501 ft | 271 kts | 13° |
| 2026-05-07 17:37 | 47.41228 | 8.46275 | 14187 ft | 279 kts | 32° |
| 2026-05-07 17:37 | 47.42625 | 8.48292 | 14874 ft | 285 kts | 50° |
| 2026-05-07 17:38 | 47.43864 | 8.50693 | 15248 ft | 303 kts | 53° |
| 2026-05-07 17:38 | 47.45094 | 8.53340 | 15535 ft | 322 kts | 60° |
| 2026-05-07 17:38 | 47.45816 | 8.56535 | 15816 ft | 338 kts | 84° |
| 2026-05-07 17:38 | 47.46003 | 8.60072 | 16124 ft | 353 kts | 88° |
| 2026-05-07 17:39 | 47.46107 | 8.63771 | 16432 ft | 369 kts | 88° |
| 2026-05-07 17:39 | 47.46219 | 8.67616 | 16924 ft | 379 kts | 88° |
| 2026-05-07 17:39 | 47.46348 | 8.71536 | 17535 ft | 385 kts | 88° |
| 2026-05-07 17:39 | 47.46487 | 8.75499 | 18213 ft | 389 kts | 88° |
| 2026-05-07 17:40 | 47.46624 | 8.79459 | 18814 ft | 393 kts | 88° |
| 2026-05-07 17:40 | 47.46505 | 8.83557 | 19409 ft | 396 kts | 99° |
| 2026-05-07 17:40 | 47.45995 | 8.87518 | 19992 ft | 399 kts | 103° |
| 2026-05-07 17:40 | 47.45400 | 8.91541 | 20579 ft | 403 kts | 103° |
| 2026-05-07 17:41 | 47.44807 | 8.95601 | 21160 ft | 407 kts | 103° |
| 2026-05-07 17:41 | 47.44216 | 8.99705 | 21743 ft | 410 kts | 103° |
| 2026-05-07 17:41 | 47.43622 | 9.03837 | 22318 ft | 413 kts | 103° |
| 2026-05-07 17:41 | 47.43020 | 9.08005 | 22875 ft | 416 kts | 103° |
| 2026-05-07 17:42 | 47.42404 | 9.12255 | 23447 ft | 419 kts | 103° |
| 2026-05-07 17:42 | 47.41832 | 9.16434 | 23900 ft | 423 kts | 100° |
| 2026-05-07 17:42 | 47.41618 | 9.20842 | 24297 ft | 428 kts | 88° |
| 2026-05-07 17:42 | 47.41962 | 9.25224 | 24673 ft | 432 kts | 80° |
| 2026-05-07 17:43 | 47.42534 | 9.29594 | 25111 ft | 435 kts | 77° |
| 2026-05-07 17:43 | 47.43203 | 9.33961 | 25554 ft | 438 kts | 76° |
| 2026-05-07 17:43 | 47.43911 | 9.38349 | 25970 ft | 440 kts | 76° |
| 2026-05-07 17:43 | 47.44614 | 9.42704 | 26356 ft | 444 kts | 76° |
| 2026-05-07 17:44 | 47.45321 | 9.47163 | 26747 ft | 447 kts | 76° |
| 2026-05-07 17:44 | 47.46017 | 9.51661 | 27132 ft | 451 kts | 76° |
| 2026-05-07 17:44 | 47.46688 | 9.56200 | 27496 ft | 454 kts | 78° |
| 2026-05-07 17:44 | 47.47035 | 9.60854 | 27875 ft | 458 kts | 88° |
| 2026-05-07 17:45 | 47.46976 | 9.65571 | 28286 ft | 460 kts | 92° |
| 2026-05-07 17:45 | 47.46791 | 9.70301 | 28661 ft | 463 kts | 94° |
| 2026-05-07 17:45 | 47.46542 | 9.75060 | 29016 ft | 466 kts | 95° |
| 2026-05-07 17:45 | 47.46262 | 9.79846 | 29366 ft | 469 kts | 95° |
| 2026-05-07 17:46 | 47.45972 | 9.84655 | 29697 ft | 471 kts | 95° |
| 2026-05-07 17:46 | 47.45682 | 9.89491 | 30040 ft | 474 kts | 95° |
| 2026-05-07 17:46 | 47.45394 | 9.94361 | 30311 ft | 477 kts | 95° |
| 2026-05-07 17:46 | 47.45109 | 9.99265 | 30579 ft | 480 kts | 95° |
| 2026-05-07 17:47 | 47.44825 | 10.04188 | 30842 ft | 483 kts | 95° |
| 2026-05-07 17:47 | 47.44539 | 10.09141 | 31139 ft | 484 kts | 95° |
| 2026-05-07 17:47 | 47.44251 | 10.14109 | 31389 ft | 487 kts | 95° |
| 2026-05-07 17:47 | 47.43835 | 10.19088 | 31637 ft | 490 kts | 100° |
| 2026-05-07 17:48 | 47.43239 | 10.24056 | 31893 ft | 492 kts | 101° |
| 2026-05-07 17:48 | 47.42819 | 10.27347 | 32056 ft | 494 kts | 101° |
| 2026-05-07 17:48 | 47.42158 | 10.32324 | 32361 ft | 494 kts | 102° |
| 2026-05-07 17:48 | 47.41332 | 10.37244 | 32686 ft | 494 kts | 109° |
| 2026-05-07 17:49 | 47.40048 | 10.41936 | 32993 ft | 492 kts | 118° |
| 2026-05-07 17:49 | 47.38282 | 10.46229 | 33288 ft | 489 kts | 129° |
| 2026-05-07 17:49 | 47.36053 | 10.49998 | 33553 ft | 486 kts | 140° |
| 2026-05-07 17:49 | 47.33436 | 10.53097 | 33868 ft | 480 kts | 150° |
| 2026-05-07 17:50 | 47.30590 | 10.55631 | 34127 ft | 478 kts | 155° |
| 2026-05-07 17:50 | 47.27675 | 10.57995 | 34373 ft | 478 kts | 156° |
| 2026-05-07 17:50 | 47.24740 | 10.60285 | 34657 ft | 477 kts | 157° |
| 2026-05-07 17:50 | 47.21806 | 10.62543 | 34968 ft | 475 kts | 157° |
| 2026-05-07 17:51 | 47.18880 | 10.64790 | 35267 ft | 474 kts | 157° |
| 2026-05-07 17:51 | 47.15881 | 10.66752 | 35566 ft | 470 kts | 163° |
| 2026-05-07 17:51 | 47.12846 | 10.68503 | 35848 ft | 469 kts | 163° |
| 2026-05-07 17:51 | 47.09794 | 10.70203 | 36110 ft | 468 kts | 164° |
| 2026-05-07 17:52 | 47.06744 | 10.71872 | 36360 ft | 468 kts | 165° |
| 2026-05-07 17:52 | 47.03689 | 10.73531 | 36542 ft | 468 kts | 165° |
| 2026-05-07 17:52 | 47.00631 | 10.75194 | 36729 ft | 469 kts | 164° |
| 2026-05-07 17:52 | 46.97627 | 10.76868 | 37092 ft | 467 kts | 164° |
| 2026-05-07 17:53 | 46.94553 | 10.78604 | 37392 ft | 466 kts | 163° |
| 2026-05-07 17:53 | 46.91573 | 10.80296 | 37555 ft | 467 kts | 163° |
| 2026-05-07 17:53 | 46.88538 | 10.82013 | 37702 ft | 468 kts | 163° |
| 2026-05-07 17:53 | 46.85504 | 10.83723 | 38002 ft | 466 kts | 163° |
| 2026-05-07 17:54 | 46.82491 | 10.85423 | 38314 ft | 464 kts | 163° |
| 2026-05-07 17:54 | 46.79544 | 10.87398 | 38535 ft | 469 kts | 155° |
| 2026-05-07 17:54 | 46.76791 | 10.89992 | 38687 ft | 475 kts | 146° |
| 2026-05-07 17:54 | 46.74329 | 10.93247 | 38810 ft | 481 kts | 137° |
| 2026-05-07 17:55 | 46.72049 | 10.96827 | 38985 ft | 483 kts | 135° |
| 2026-05-07 17:55 | 46.69829 | 11.00520 | 39019 ft | 485 kts | 134° |
| 2026-05-07 17:55 | 46.65477 | 11.07974 | 39036 ft | 481 kts | 134° |
| 2026-05-07 17:56 | 46.61142 | 11.15359 | 39033 ft | 480 kts | 135° |
| 2026-05-07 17:56 | 46.56769 | 11.22701 | 39018 ft | 480 kts | 135° |
| 2026-05-07 17:57 | 46.53122 | 11.28777 | 38935 ft | 480 kts | 135° |
| 2026-05-07 17:57 | 46.47991 | 11.37303 | 38934 ft | 480 kts | 135° |
| 2026-05-07 17:58 | 46.43597 | 11.44589 | 38941 ft | 480 kts | 135° |
| 2026-05-07 17:58 | 46.39192 | 11.51874 | 38999 ft | 481 kts | 135° |
| 2026-05-07 17:59 | 46.34784 | 11.59142 | 39001 ft | 480 kts | 136° |
| 2026-05-07 17:59 | 46.30374 | 11.66395 | 38997 ft | 480 kts | 136° |
| 2026-05-07 18:00 | 46.25959 | 11.73632 | 38998 ft | 479 kts | 136° |
| 2026-05-07 18:00 | 46.21548 | 11.80851 | 38995 ft | 479 kts | 136° |
| 2026-05-07 18:01 | 46.17137 | 11.88051 | 38993 ft | 479 kts | 136° |
| 2026-05-07 18:01 | 46.12722 | 11.95238 | 38993 ft | 479 kts | 136° |
| 2026-05-07 18:02 | 46.06084 | 12.06009 | 38991 ft | 479 kts | 136° |
| 2026-05-07 18:03 | 46.01647 | 12.13182 | 38991 ft | 480 kts | 136° |
| 2026-05-07 18:03 | 45.97207 | 12.20341 | 38988 ft | 480 kts | 136° |
| 2026-05-07 18:04 | 45.92761 | 12.27494 | 38994 ft | 480 kts | 136° |
| 2026-05-07 18:04 | 45.88313 | 12.34631 | 38984 ft | 479 kts | 137° |
| 2026-05-07 18:05 | 45.83866 | 12.41747 | 38990 ft | 479 kts | 137° |
| 2026-05-07 18:05 | 45.79448 | 12.48798 | 38990 ft | 479 kts | 137° |
| 2026-05-07 18:06 | 45.74993 | 12.55890 | 38997 ft | 479 kts | 137° |
| 2026-05-07 18:06 | 45.70538 | 12.62964 | 38992 ft | 479 kts | 137° |
| 2026-05-07 18:07 | 45.66074 | 12.70033 | 38995 ft | 479 kts | 137° |
| 2026-05-07 18:07 | 45.61608 | 12.77086 | 38996 ft | 479 kts | 137° |
| 2026-05-07 18:08 | 45.57135 | 12.84135 | 38997 ft | 479 kts | 137° |
| 2026-05-07 18:08 | 45.52656 | 12.91173 | 38997 ft | 479 kts | 137° |
| 2026-05-07 18:09 | 45.48180 | 12.98190 | 38994 ft | 479 kts | 137° |
| 2026-05-07 18:09 | 45.43696 | 13.05202 | 38996 ft | 479 kts | 138° |
| 2026-05-07 18:10 | 45.39211 | 13.12198 | 38993 ft | 479 kts | 138° |
| 2026-05-07 18:10 | 45.34714 | 13.19194 | 39004 ft | 479 kts | 138° |
| 2026-05-07 18:11 | 45.30380 | 13.26421 | 39003 ft | 484 kts | 131° |
| 2026-05-07 18:11 | 45.26443 | 13.34192 | 39010 ft | 485 kts | 130° |
| 2026-05-07 18:12 | 45.22577 | 13.42039 | 39014 ft | 485 kts | 130° |
| 2026-05-07 18:12 | 45.18710 | 13.49890 | 39014 ft | 485 kts | 130° |
| 2026-05-07 18:13 | 45.14855 | 13.57666 | 39003 ft | 486 kts | 130° |
| 2026-05-07 18:13 | 45.10960 | 13.65486 | 39018 ft | 486 kts | 130° |
| 2026-05-07 18:14 | 45.07057 | 13.73296 | 39015 ft | 486 kts | 130° |
| 2026-05-07 18:14 | 45.03151 | 13.81093 | 39030 ft | 486 kts | 130° |
| 2026-05-07 18:15 | 44.99239 | 13.88881 | 39012 ft | 486 kts | 131° |
| 2026-05-07 18:15 | 44.95325 | 13.96654 | 39019 ft | 485 kts | 131° |
| 2026-05-07 18:16 | 44.91410 | 14.04406 | 39028 ft | 485 kts | 131° |
| 2026-05-07 18:16 | 44.87487 | 14.12150 | 39027 ft | 486 kts | 131° |
| 2026-05-07 18:17 | 44.83548 | 14.19906 | 39014 ft | 487 kts | 131° |
| 2026-05-07 18:17 | 44.79595 | 14.27670 | 39024 ft | 488 kts | 131° |
| 2026-05-07 18:18 | 44.75637 | 14.35424 | 39024 ft | 488 kts | 131° |
| 2026-05-07 18:18 | 44.71671 | 14.43172 | 39027 ft | 488 kts | 131° |
| 2026-05-07 18:19 | 44.67703 | 14.50904 | 39019 ft | 488 kts | 131° |
| 2026-05-07 18:19 | 44.63731 | 14.58623 | 39007 ft | 487 kts | 131° |
| 2026-05-07 18:20 | 44.59749 | 14.66338 | 39029 ft | 489 kts | 131° |
| 2026-05-07 18:20 | 44.55752 | 14.74062 | 39028 ft | 489 kts | 131° |
| 2026-05-07 18:21 | 44.51776 | 14.81727 | 39032 ft | 489 kts | 131° |
| 2026-05-07 18:21 | 44.47740 | 14.89485 | 39032 ft | 489 kts | 131° |
| 2026-05-07 18:22 | 44.43726 | 14.97182 | 39036 ft | 489 kts | 131° |
| 2026-05-07 18:22 | 44.39735 | 15.04812 | 39035 ft | 489 kts | 131° |
| 2026-05-07 18:23 | 44.35711 | 15.12485 | 39019 ft | 490 kts | 131° |
| 2026-05-07 18:23 | 44.31667 | 15.20174 | 39034 ft | 491 kts | 131° |
| 2026-05-07 18:24 | 44.27620 | 15.27855 | 39044 ft | 491 kts | 131° |
| 2026-05-07 18:24 | 44.23566 | 15.35525 | 39046 ft | 491 kts | 132° |
| 2026-05-07 18:25 | 44.19507 | 15.43184 | 39028 ft | 491 kts | 132° |
| 2026-05-07 18:25 | 44.15443 | 15.50834 | 39047 ft | 491 kts | 132° |
| 2026-05-07 18:26 | 44.11372 | 15.58477 | 39034 ft | 491 kts | 132° |
| 2026-05-07 18:26 | 44.07289 | 15.66120 | 39048 ft | 493 kts | 132° |
| 2026-05-07 18:27 | 44.03199 | 15.73757 | 39041 ft | 492 kts | 132° |
| 2026-05-07 18:27 | 43.99109 | 15.81376 | 39045 ft | 492 kts | 132° |
| 2026-05-07 18:28 | 43.95014 | 15.88984 | 39048 ft | 492 kts | 132° |
| 2026-05-07 18:28 | 43.90910 | 15.96587 | 39052 ft | 492 kts | 132° |
| 2026-05-07 18:29 | 43.86806 | 16.04171 | 39043 ft | 492 kts | 132° |
| 2026-05-07 18:29 | 43.82907 | 16.11934 | 39050 ft | 497 kts | 128° |
| 2026-05-07 18:30 | 43.79193 | 16.20012 | 39053 ft | 498 kts | 127° |
| 2026-05-07 18:30 | 43.75455 | 16.28080 | 39059 ft | 498 kts | 128° |
| 2026-05-07 18:31 | 43.71668 | 16.36090 | 39045 ft | 497 kts | 128° |
| 2026-05-07 18:31 | 43.67853 | 16.44075 | 39067 ft | 498 kts | 128° |
| 2026-05-07 18:32 | 43.64022 | 16.52062 | 39077 ft | 499 kts | 128° |
| 2026-05-07 18:32 | 43.60189 | 16.60041 | 39069 ft | 499 kts | 128° |
| 2026-05-07 18:33 | 43.56348 | 16.68019 | 39081 ft | 499 kts | 128° |
| 2026-05-07 18:33 | 43.52507 | 16.75975 | 39072 ft | 499 kts | 129° |
| 2026-05-07 18:34 | 43.48657 | 16.83927 | 39078 ft | 499 kts | 129° |
| 2026-05-07 18:34 | 43.44798 | 16.91878 | 39083 ft | 499 kts | 129° |
| 2026-05-07 18:35 | 43.40932 | 16.99819 | 39078 ft | 499 kts | 129° |
| 2026-05-07 18:35 | 43.37062 | 17.07750 | 39074 ft | 500 kts | 129° |
| 2026-05-07 18:36 | 43.33832 | 17.14352 | 39081 ft | 501 kts | 129° |
| 2026-05-07 18:36 | 43.29944 | 17.22279 | 39052 ft | 501 kts | 129° |
| 2026-05-07 18:37 | 43.26033 | 17.30230 | 39082 ft | 505 kts | 129° |
| 2026-05-07 18:37 | 43.22092 | 17.38221 | 39082 ft | 506 kts | 129° |
| 2026-05-07 18:38 | 43.18144 | 17.46209 | 39076 ft | 506 kts | 129° |
| 2026-05-07 18:38 | 43.14222 | 17.54106 | 39079 ft | 505 kts | 131° |
| 2026-05-07 18:39 | 43.10206 | 17.61950 | 39081 ft | 505 kts | 131° |
| 2026-05-07 18:39 | 43.06193 | 17.69834 | 39074 ft | 505 kts | 131° |
| 2026-05-07 18:40 | 43.02211 | 17.77758 | 39075 ft | 506 kts | 131° |
| 2026-05-07 18:40 | 42.98230 | 17.85709 | 39083 ft | 507 kts | 131° |
| 2026-05-07 18:41 | 42.94237 | 17.93664 | 39088 ft | 508 kts | 131° |
| 2026-05-07 18:41 | 42.90236 | 18.01613 | 39083 ft | 508 kts | 131° |
| 2026-05-07 18:42 | 42.86225 | 18.09551 | 39087 ft | 509 kts | 131° |
| 2026-05-07 18:42 | 42.82208 | 18.17484 | 39081 ft | 508 kts | 131° |
| 2026-05-07 18:43 | 42.78193 | 18.25392 | 39072 ft | 508 kts | 131° |
| 2026-05-07 18:43 | 42.74175 | 18.33285 | 39061 ft | 507 kts | 131° |
| 2026-05-07 18:44 | 42.70145 | 18.41180 | 39053 ft | 510 kts | 132° |
| 2026-05-07 18:44 | 42.66065 | 18.49145 | 39063 ft | 516 kts | 132° |
| 2026-05-07 18:45 | 42.62145 | 18.56792 | 39066 ft | 517 kts | 132° |
| 2026-05-07 18:45 | 42.58498 | 18.63880 | 39072 ft | 517 kts | 132° |
| 2026-05-07 18:46 | 42.54374 | 18.71885 | 38988 ft | 517 kts | 132° |
| 2026-05-07 18:46 | 42.52316 | 18.75884 | 38856 ft | 515 kts | 133° |
| 2026-05-07 18:46 | 42.50277 | 18.79828 | 38693 ft | 507 kts | 133° |
| 2026-05-07 18:46 | 42.48262 | 18.83721 | 38275 ft | 504 kts | 133° |
| 2026-05-07 18:47 | 42.46242 | 18.87606 | 37701 ft | 505 kts | 133° |
| 2026-05-07 18:47 | 42.44213 | 18.91496 | 37152 ft | 506 kts | 133° |
| 2026-05-07 18:47 | 42.42182 | 18.95386 | 36596 ft | 506 kts | 133° |
| 2026-05-07 18:47 | 42.40143 | 18.99283 | 36010 ft | 509 kts | 133° |
| 2026-05-07 18:48 | 42.38092 | 19.03201 | 35406 ft | 511 kts | 132° |
| 2026-05-07 18:48 | 42.36038 | 19.07127 | 34775 ft | 513 kts | 131° |
| 2026-05-07 18:48 | 42.33967 | 19.11075 | 34110 ft | 515 kts | 131° |
| 2026-05-07 18:48 | 42.31888 | 19.15030 | 33358 ft | 517 kts | 131° |
| 2026-05-07 18:49 | 42.29833 | 19.18934 | 32665 ft | 516 kts | 131° |
| 2026-05-07 18:49 | 42.27754 | 19.22884 | 31938 ft | 516 kts | 130° |
| 2026-05-07 18:49 | 42.25679 | 19.26827 | 31336 ft | 513 kts | 130° |
| 2026-05-07 18:49 | 42.23624 | 19.30736 | 30854 ft | 507 kts | 130° |
| 2026-05-07 18:50 | 42.21594 | 19.34595 | 30368 ft | 502 kts | 130° |
| 2026-05-07 18:50 | 42.19583 | 19.38413 | 29829 ft | 496 kts | 130° |
| 2026-05-07 18:50 | 42.17596 | 19.42179 | 29341 ft | 490 kts | 130° |
| 2026-05-07 18:50 | 42.15632 | 19.45894 | 28852 ft | 483 kts | 130° |
| 2026-05-07 18:51 | 42.13827 | 19.49304 | 28363 ft | 477 kts | 130° |
| 2026-05-07 18:51 | 42.11910 | 19.52917 | 27916 ft | 471 kts | 130° |
| 2026-05-07 18:51 | 42.10014 | 19.56489 | 27439 ft | 466 kts | 130° |
| 2026-05-07 18:51 | 42.08141 | 19.60012 | 26976 ft | 460 kts | 130° |
| 2026-05-07 18:52 | 42.06289 | 19.63490 | 26511 ft | 455 kts | 130° |
| 2026-05-07 18:52 | 42.04452 | 19.66938 | 26041 ft | 451 kts | 130° |
| 2026-05-07 18:52 | 42.02629 | 19.70355 | 25555 ft | 447 kts | 130° |
| 2026-05-07 18:52 | 42.00858 | 19.73777 | 25091 ft | 445 kts | 125° |
| 2026-05-07 18:53 | 41.99595 | 19.77546 | 24696 ft | 443 kts | 109° |
| 2026-05-07 18:53 | 41.99124 | 19.81624 | 24243 ft | 442 kts | 92° |
| 2026-05-07 18:53 | 41.99500 | 19.85697 | 23805 ft | 439 kts | 77° |
| 2026-05-07 18:53 | 42.00340 | 19.89625 | 23300 ft | 436 kts | 74° |
| 2026-05-07 18:54 | 42.01217 | 19.93505 | 22831 ft | 431 kts | 75° |
| 2026-05-07 18:54 | 42.02061 | 19.97343 | 22372 ft | 425 kts | 75° |
| 2026-05-07 18:54 | 42.02875 | 20.01143 | 21938 ft | 421 kts | 75° |
| 2026-05-07 18:54 | 42.03674 | 20.04918 | 21500 ft | 418 kts | 76° |
| 2026-05-07 18:55 | 42.04460 | 20.08664 | 21043 ft | 415 kts | 76° |
| 2026-05-07 18:55 | 42.05236 | 20.12389 | 20610 ft | 412 kts | 76° |
| 2026-05-07 18:55 | 42.06002 | 20.16082 | 20165 ft | 408 kts | 76° |
| 2026-05-07 18:55 | 42.06758 | 20.19741 | 19740 ft | 405 kts | 76° |
| 2026-05-07 18:56 | 42.07510 | 20.23381 | 19298 ft | 402 kts | 76° |
| 2026-05-07 18:56 | 42.08254 | 20.26995 | 18873 ft | 399 kts | 76° |
| 2026-05-07 18:56 | 42.08992 | 20.30584 | 18443 ft | 397 kts | 76° |
| 2026-05-07 18:56 | 42.09723 | 20.34150 | 17971 ft | 394 kts | 76° |
| 2026-05-07 18:57 | 42.10448 | 20.37691 | 17547 ft | 391 kts | 76° |
| 2026-05-07 18:57 | 42.11167 | 20.41210 | 17115 ft | 388 kts | 76° |
| 2026-05-07 18:57 | 42.11886 | 20.44703 | 16679 ft | 386 kts | 75° |
| 2026-05-07 18:57 | 42.12931 | 20.47999 | 16263 ft | 381 kts | 57° |
| 2026-05-07 18:58 | 42.14681 | 20.50604 | 15872 ft | 374 kts | 36° |
| 2026-05-07 18:58 | 42.16923 | 20.52304 | 15487 ft | 368 kts | 22° |
| 2026-05-07 18:58 | 42.19275 | 20.53662 | 15063 ft | 367 kts | 21° |
| 2026-05-07 18:58 | 42.21626 | 20.54991 | 14660 ft | 366 kts | 21° |
| 2026-05-07 18:59 | 42.23964 | 20.56328 | 14274 ft | 363 kts | 22° |
| 2026-05-07 18:59 | 42.26284 | 20.57666 | 13867 ft | 362 kts | 22° |
| 2026-05-07 18:59 | 42.28588 | 20.59003 | 13426 ft | 360 kts | 22° |
| 2026-05-07 18:59 | 42.30852 | 20.60322 | 13034 ft | 358 kts | 22° |
| 2026-05-07 19:00 | 42.33160 | 20.61671 | 12632 ft | 356 kts | 22° |
| 2026-05-07 19:00 | 42.35424 | 20.62996 | 12251 ft | 354 kts | 22° |
| 2026-05-07 19:00 | 42.37676 | 20.64316 | 11855 ft | 352 kts | 22° |
| 2026-05-07 19:00 | 42.39889 | 20.65614 | 11480 ft | 351 kts | 22° |
| 2026-05-07 19:01 | 42.42124 | 20.66926 | 11075 ft | 350 kts | 22° |
| 2026-05-07 19:01 | 42.44359 | 20.68239 | 10605 ft | 351 kts | 22° |
| 2026-05-07 19:01 | 42.46573 | 20.69539 | 10388 ft | 341 kts | 22° |
| 2026-05-07 19:01 | 42.48709 | 20.70794 | 10267 ft | 329 kts | 22° |
| 2026-05-07 19:02 | 42.50779 | 20.72011 | 10129 ft | 319 kts | 21° |
| 2026-05-07 19:02 | 42.52788 | 20.73192 | 10014 ft | 310 kts | 22° |
| 2026-05-07 19:02 | 42.54746 | 20.74339 | 9773 ft | 305 kts | 22° |
| 2026-05-07 19:02 | 42.56682 | 20.75478 | 9436 ft | 303 kts | 22° |
| 2026-05-07 19:03 | 42.58612 | 20.76616 | 9088 ft | 302 kts | 22° |
| 2026-05-07 19:03 | 42.60529 | 20.77748 | 8784 ft | 299 kts | 22° |
| 2026-05-07 19:03 | 42.62437 | 20.78876 | 8498 ft | 299 kts | 22° |
| 2026-05-07 19:03 | 42.64332 | 20.79997 | 8232 ft | 295 kts | 22° |
| 2026-05-07 19:04 | 42.66165 | 20.81081 | 7995 ft | 278 kts | 21° |
| 2026-05-07 19:04 | 42.67886 | 20.82092 | 7695 ft | 260 kts | 21° |
| 2026-05-07 19:04 | 42.69537 | 20.83058 | 7594 ft | 262 kts | 22° |
| 2026-05-07 19:04 | 42.71203 | 20.84042 | 7481 ft | 259 kts | 22° |
| 2026-05-07 19:05 | 42.72858 | 20.85024 | 7232 ft | 260 kts | 22° |
| 2026-05-07 19:05 | 42.74512 | 20.86007 | 6953 ft | 260 kts | 22° |
| 2026-05-07 19:05 | 42.76063 | 20.87241 | 6645 ft | 260 kts | 47° |
| 2026-05-07 19:05 | 42.76838 | 20.89360 | 6248 ft | 251 kts | 88° |
| 2026-05-07 19:06 | 42.76566 | 20.91615 | 5824 ft | 238 kts | 116° |
| 2026-05-07 19:06 | 42.75700 | 20.95930 | 5365 ft | 234 kts | 102° |
| 2026-05-07 19:06 | 42.75527 | 20.98111 | 5171 ft | 229 kts | 103° |
| 2026-05-07 19:07 | 42.74991 | 21.00056 | 4919 ft | 211 kts | 137° |
| 2026-05-07 19:07 | 42.73928 | 21.01183 | 4911 ft | 183 kts | 158° |
| 2026-05-07 19:07 | 42.72795 | 21.01804 | 4663 ft | 170 kts | 167° |
| 2026-05-07 19:07 | 42.71673 | 21.02048 | 4396 ft | 159 kts | 181° |
| 2026-05-07 19:08 | 42.70606 | 21.02142 | 4181 ft | 148 kts | 180° |
| 2026-05-07 19:08 | 42.69623 | 21.02271 | 3982 ft | 136 kts | 179° |
| 2026-05-07 19:08 | 42.68691 | 21.02393 | 3819 ft | 135 kts | 179° |
| 2026-05-07 19:08 | 42.67752 | 21.02510 | 3637 ft | 135 kts | 180° |
| 2026-05-07 19:09 | 42.66814 | 21.02600 | 3469 ft | 136 kts | 179° |
| 2026-05-07 19:09 | 42.65873 | 21.02697 | 3282 ft | 135 kts | 178° |
| 2026-05-07 19:09 | 42.64935 | 21.02796 | 3080 ft | 135 kts | 178° |
| 2026-05-07 19:09 | 42.64001 | 21.02894 | 2911 ft | 135 kts | 177° |
| 2026-05-07 19:10 | 42.63066 | 21.02992 | 2735 ft | 135 kts | 177° |
| 2026-05-07 19:10 | 42.62133 | 21.03088 | 2530 ft | 135 kts | 176° |
| 2026-05-07 19:10 | 42.61211 | 21.03182 | 2354 ft | 134 kts | 177° |
| 2026-05-07 19:10 | 42.60287 | 21.03284 | 2164 ft | 133 kts | 177° |
| 2026-05-07 19:11 | 42.59359 | 21.03389 | 1999 ft | 134 kts | 177° |
| 2026-05-07 19:11 | 42.58437 | 21.03482 | 1835 ft | 131 kts | 178° |
| 2026-05-07 19:11 | 42.57646 | 21.03549 | 1789 ft | 77 kts | 175° |
| 2026-05-07 19:11 | 42.57256 | 21.03592 | 1793 ft | 49 kts | 175° |
| 2026-05-07 19:12 | 42.56928 | 21.03624 | 1788 ft | 48 kts | 176° |
| 2026-05-07 19:12 | 42.56670 | 21.03561 | 1786 ft | 32 kts | 205° |
| 2026-05-07 19:12 | 42.56556 | 21.03460 | 1786 ft | 12 kts | 243° |
| 2026-05-07 19:12 | 42.56555 | 21.03451 | 1787 ft | 2 kts | 261° |
| 2026-05-07 19:13 | 42.56564 | 21.03435 | 1787 ft | 2 kts | 315° |
| 2026-05-07 19:13 | 42.56599 | 21.03420 | 1787 ft | 12 kts | 346° |
| 2026-05-07 19:13 | 42.56747 | 21.03400 | 1786 ft | 29 kts | 356° |
| 2026-05-07 19:13 | 42.56944 | 21.03380 | 1790 ft | 27 kts | 355° |
| 2026-05-07 19:14 | 42.57130 | 21.03361 | 1789 ft | 26 kts | 355° |
| 2026-05-07 19:14 | 42.57273 | 21.03342 | 1790 ft | 16 kts | 343° |
| 2026-05-07 19:14 | 42.57326 | 21.03227 | 1791 ft | 13 kts | 270° |
| 2026-05-07 19:14 | 42.57324 | 21.03192 | 1791 ft | 1 kts | 265° |
| 2026-05-07 19:15 | 42.57342 | 21.03143 | 1791 ft | 0 kts | 266° |